sensor_id;sensor_type;location;lat;lon;timestamp;P1;durP1;ratioP1;P2;durP2;ratioP2
31848;SDS011;18414;59.352;18.152;2023-08-31T00:01:00;4.05;;;2.40;;
31848;SDS011;18414;59.352;18.152;2023-08-31T00:03:26;3.92;;;3.00;;
31848;SDS011;18414;59.352;18.152;2023-08-31T00:05:51;4.45;;;2.60;;
31848;SDS011;18414;59.352;18.152;2023-08-31T00:08:17;4.50;;;2.83;;
31848;SDS011;18414;59.352;18.152;2023-08-31T00:10:42;4.60;;;2.90;;
31848;SDS011;18414;59.352;18.152;2023-08-31T00:13:08;3.10;;;2.80;;
31848;SDS011;18414;59.352;18.152;2023-08-31T00:15:33;3.95;;;3.00;;
31848;SDS011;18414;59.352;18.152;2023-08-31T00:18:00;3.17;;;2.88;;
31848;SDS011;18414;59.352;18.152;2023-08-31T00:20:25;5.28;;;3.03;;
31848;SDS011;18414;59.352;18.152;2023-08-31T00:22:51;4.10;;;2.90;;
31848;SDS011;18414;59.352;18.152;2023-08-31T00:25:17;4.03;;;3.00;;
31848;SDS011;18414;59.352;18.152;2023-08-31T00:27:42;6.07;;;3.20;;
31848;SDS011;18414;59.352;18.152;2023-08-31T00:30:08;5.20;;;3.15;;
31848;SDS011;18414;59.352;18.152;2023-08-31T00:32:34;5.03;;;3.00;;
31848;SDS011;18414;59.352;18.152;2023-08-31T00:35:00;3.65;;;2.88;;
31848;SDS011;18414;59.352;18.152;2023-08-31T00:37:25;6.45;;;3.00;;
31848;SDS011;18414;59.352;18.152;2023-08-31T00:39:51;5.07;;;3.10;;
31848;SDS011;18414;59.352;18.152;2023-08-31T00:42:17;5.95;;;3.20;;
31848;SDS011;18414;59.352;18.152;2023-08-31T00:44:43;3.55;;;3.10;;
31848;SDS011;18414;59.352;18.152;2023-08-31T00:47:08;6.20;;;3.05;;
31848;SDS011;18414;59.352;18.152;2023-08-31T00:49:34;4.60;;;3.10;;
31848;SDS011;18414;59.352;18.152;2023-08-31T00:52:00;4.88;;;2.95;;
31848;SDS011;18414;59.352;18.152;2023-08-31T00:54:25;4.28;;;3.10;;
31848;SDS011;18414;59.352;18.152;2023-08-31T00:56:55;3.70;;;3.20;;
31848;SDS011;18414;59.352;18.152;2023-08-31T00:59:22;3.50;;;3.20;;
31848;SDS011;18414;59.352;18.152;2023-08-31T01:02:03;6.57;;;3.17;;
31848;SDS011;18414;59.352;18.152;2023-08-31T01:04:41;5.88;;;3.25;;
31848;SDS011;18414;59.352;18.152;2023-08-31T01:07:21;6.53;;;3.40;;
31848;SDS011;18414;59.352;18.152;2023-08-31T01:12:40;3.80;;;3.15;;
31848;SDS011;18414;59.352;18.152;2023-08-31T01:15:11;4.35;;;3.17;;
31848;SDS011;18414;59.352;18.152;2023-08-31T01:17:38;3.88;;;3.15;;
31848;SDS011;18414;59.352;18.152;2023-08-31T01:20:09;4.78;;;3.22;;
31848;SDS011;18414;59.352;18.152;2023-08-31T01:25:05;5.10;;;3.40;;
31848;SDS011;18414;59.352;18.152;2023-08-31T01:27:34;3.20;;;2.88;;
31848;SDS011;18414;59.352;18.152;2023-08-31T01:30:00;3.50;;;3.20;;
31848;SDS011;18414;59.352;18.152;2023-08-31T01:32:25;3.65;;;2.92;;
31848;SDS011;18414;59.352;18.152;2023-08-31T01:34:51;5.13;;;3.00;;
31848;SDS011;18414;59.352;18.152;2023-08-31T01:37:31;8.23;;;3.13;;
31848;SDS011;18414;59.352;18.152;2023-08-31T01:40:09;3.80;;;2.95;;
31848;SDS011;18414;59.352;18.152;2023-08-31T01:42:37;4.85;;;3.42;;
31848;SDS011;18414;59.352;18.152;2023-08-31T01:45:03;3.92;;;3.20;;
31848;SDS011;18414;59.352;18.152;2023-08-31T01:47:30;4.45;;;3.00;;
31848;SDS011;18414;59.352;18.152;2023-08-31T01:49:56;3.42;;;3.13;;
31848;SDS011;18414;59.352;18.152;2023-08-31T01:52:21;4.10;;;3.00;;
31848;SDS011;18414;59.352;18.152;2023-08-31T01:54:46;5.63;;;3.00;;
31848;SDS011;18414;59.352;18.152;2023-08-31T01:57:12;3.85;;;2.90;;
31848;SDS011;18414;59.352;18.152;2023-08-31T01:59:38;3.30;;;3.00;;
31848;SDS011;18414;59.352;18.152;2023-08-31T02:02:03;4.03;;;3.15;;
31848;SDS011;18414;59.352;18.152;2023-08-31T02:04:29;3.20;;;2.92;;
31848;SDS011;18414;59.352;18.152;2023-08-31T02:06:54;3.58;;;2.50;;
31848;SDS011;18414;59.352;18.152;2023-08-31T02:09:19;3.80;;;1.90;;
31848;SDS011;18414;59.352;18.152;2023-08-31T02:11:45;2.00;;;1.90;;
31848;SDS011;18414;59.352;18.152;2023-08-31T02:14:11;2.20;;;2.00;;
31848;SDS011;18414;59.352;18.152;2023-08-31T02:16:36;3.17;;;2.25;;
31848;SDS011;18414;59.352;18.152;2023-08-31T02:19:01;3.22;;;2.40;;
31848;SDS011;18414;59.352;18.152;2023-08-31T02:21:26;2.22;;;2.03;;
31848;SDS011;18414;59.352;18.152;2023-08-31T02:23:52;1.63;;;1.40;;
31848;SDS011;18414;59.352;18.152;2023-08-31T02:26:17;3.22;;;2.15;;
31848;SDS011;18414;59.352;18.152;2023-08-31T02:28:43;2.72;;;2.00;;
31848;SDS011;18414;59.352;18.152;2023-08-31T02:31:09;4.43;;;2.40;;
31848;SDS011;18414;59.352;18.152;2023-08-31T02:33:35;2.05;;;1.85;;
31848;SDS011;18414;59.352;18.152;2023-08-31T02:36:00;2.78;;;2.45;;
31848;SDS011;18414;59.352;18.152;2023-08-31T02:38:25;3.40;;;2.38;;
31848;SDS011;18414;59.352;18.152;2023-08-31T02:40:51;2.42;;;1.45;;
31848;SDS011;18414;59.352;18.152;2023-08-31T02:43:16;3.63;;;2.28;;
31848;SDS011;18414;59.352;18.152;2023-08-31T02:45:41;1.70;;;1.60;;
31848;SDS011;18414;59.352;18.152;2023-08-31T02:48:07;2.03;;;1.83;;
31848;SDS011;18414;59.352;18.152;2023-08-31T02:50:35;2.10;;;1.90;;
31848;SDS011;18414;59.352;18.152;2023-08-31T02:53:01;2.08;;;1.83;;
31848;SDS011;18414;59.352;18.152;2023-08-31T02:55:26;2.20;;;1.67;;
31848;SDS011;18414;59.352;18.152;2023-08-31T02:57:52;1.40;;;1.30;;
31848;SDS011;18414;59.352;18.152;2023-08-31T03:00:18;2.72;;;1.92;;
31848;SDS011;18414;59.352;18.152;2023-08-31T03:02:46;2.45;;;2.22;;
31848;SDS011;18414;59.352;18.152;2023-08-31T03:05:18;2.47;;;1.88;;
31848;SDS011;18414;59.352;18.152;2023-08-31T03:07:44;1.95;;;1.83;;
31848;SDS011;18414;59.352;18.152;2023-08-31T03:10:09;3.15;;;2.22;;
31848;SDS011;18414;59.352;18.152;2023-08-31T03:12:35;2.05;;;1.88;;
31848;SDS011;18414;59.352;18.152;2023-08-31T03:15:01;1.65;;;1.55;;
31848;SDS011;18414;59.352;18.152;2023-08-31T03:17:26;2.97;;;2.30;;
31848;SDS011;18414;59.352;18.152;2023-08-31T03:19:52;2.38;;;2.17;;
31848;SDS011;18414;59.352;18.152;2023-08-31T03:22:17;1.20;;;1.15;;
31848;SDS011;18414;59.352;18.152;2023-08-31T03:24:42;2.30;;;2.10;;
31848;SDS011;18414;59.352;18.152;2023-08-31T03:27:08;2.20;;;2.00;;
31848;SDS011;18414;59.352;18.152;2023-08-31T03:29:33;3.90;;;2.05;;
31848;SDS011;18414;59.352;18.152;2023-08-31T03:31:59;1.90;;;1.80;;
31848;SDS011;18414;59.352;18.152;2023-08-31T03:34:31;3.40;;;2.47;;
31848;SDS011;18414;59.352;18.152;2023-08-31T03:36:57;3.58;;;1.63;;
31848;SDS011;18414;59.352;18.152;2023-08-31T03:39:23;2.33;;;2.13;;
31848;SDS011;18414;59.352;18.152;2023-08-31T03:41:49;1.88;;;1.77;;
31848;SDS011;18414;59.352;18.152;2023-08-31T03:44:15;2.92;;;1.77;;
31848;SDS011;18414;59.352;18.152;2023-08-31T03:46:40;2.00;;;1.88;;
31848;SDS011;18414;59.352;18.152;2023-08-31T03:49:05;2.20;;;2.00;;
31848;SDS011;18414;59.352;18.152;2023-08-31T03:51:31;2.20;;;2.00;;
31848;SDS011;18414;59.352;18.152;2023-08-31T03:53:56;2.35;;;2.13;;
31848;SDS011;18414;59.352;18.152;2023-08-31T03:56:22;3.45;;;2.70;;
31848;SDS011;18414;59.352;18.152;2023-08-31T03:58:47;2.50;;;2.20;;
31848;SDS011;18414;59.352;18.152;2023-08-31T04:01:13;2.45;;;2.25;;
31848;SDS011;18414;59.352;18.152;2023-08-31T04:03:39;1.60;;;1.50;;
31848;SDS011;18414;59.352;18.152;2023-08-31T04:06:05;2.25;;;1.75;;
31848;SDS011;18414;59.352;18.152;2023-08-31T04:08:30;3.97;;;2.83;;
31848;SDS011;18414;59.352;18.152;2023-08-31T04:10:55;2.40;;;2.20;;
31848;SDS011;18414;59.352;18.152;2023-08-31T04:13:21;2.47;;;2.25;;
31848;SDS011;18414;59.352;18.152;2023-08-31T04:15:47;3.15;;;2.40;;
31848;SDS011;18414;59.352;18.152;2023-08-31T04:18:12;3.15;;;2.40;;
31848;SDS011;18414;59.352;18.152;2023-08-31T04:20:37;2.88;;;2.55;;
31848;SDS011;18414;59.352;18.152;2023-08-31T04:23:03;2.53;;;2.33;;
31848;SDS011;18414;59.352;18.152;2023-08-31T04:25:28;3.25;;;2.83;;
31848;SDS011;18414;59.352;18.152;2023-08-31T04:27:56;3.33;;;2.85;;
31848;SDS011;18414;59.352;18.152;2023-08-31T04:30:22;3.10;;;2.70;;
31848;SDS011;18414;59.352;18.152;2023-08-31T04:32:47;4.40;;;2.80;;
31848;SDS011;18414;59.352;18.152;2023-08-31T04:35:13;4.28;;;2.85;;
31848;SDS011;18414;59.352;18.152;2023-08-31T04:37:39;4.03;;;2.72;;
31848;SDS011;18414;59.352;18.152;2023-08-31T04:40:05;3.28;;;2.80;;
31848;SDS011;18414;59.352;18.152;2023-08-31T04:42:31;3.42;;;2.90;;
31848;SDS011;18414;59.352;18.152;2023-08-31T04:44:56;3.00;;;2.70;;
31848;SDS011;18414;59.352;18.152;2023-08-31T04:47:22;3.17;;;2.50;;
31848;SDS011;18414;59.352;18.152;2023-08-31T04:49:47;3.13;;;2.83;;
31848;SDS011;18414;59.352;18.152;2023-08-31T04:52:13;4.07;;;3.35;;
31848;SDS011;18414;59.352;18.152;2023-08-31T04:54:38;4.10;;;3.30;;
31848;SDS011;18414;59.352;18.152;2023-08-31T04:57:04;5.97;;;3.75;;
31848;SDS011;18414;59.352;18.152;2023-08-31T04:59:32;4.35;;;3.58;;
31848;SDS011;18414;59.352;18.152;2023-08-31T05:01:57;5.75;;;4.25;;
31848;SDS011;18414;59.352;18.152;2023-08-31T05:04:22;4.90;;;4.40;;
31848;SDS011;18414;59.352;18.152;2023-08-31T05:06:48;2.95;;;2.65;;
31848;SDS011;18414;59.352;18.152;2023-08-31T05:09:13;5.43;;;4.35;;
31848;SDS011;18414;59.352;18.152;2023-08-31T05:11:39;6.93;;;5.22;;
31848;SDS011;18414;59.352;18.152;2023-08-31T05:14:04;6.05;;;4.85;;
31848;SDS011;18414;59.352;18.152;2023-08-31T05:16:35;8.25;;;4.75;;
31848;SDS011;18414;59.352;18.152;2023-08-31T05:19:01;4.18;;;3.63;;
31848;SDS011;18414;59.352;18.152;2023-08-31T05:21:26;4.35;;;3.95;;
31848;SDS011;18414;59.352;18.152;2023-08-31T05:23:51;5.78;;;4.40;;
31848;SDS011;18414;59.352;18.152;2023-08-31T05:26:17;4.20;;;3.80;;
31848;SDS011;18414;59.352;18.152;2023-08-31T05:28:42;4.88;;;3.58;;
31848;SDS011;18414;59.352;18.152;2023-08-31T05:31:08;4.40;;;3.83;;
31848;SDS011;18414;59.352;18.152;2023-08-31T05:33:33;4.03;;;3.60;;
31848;SDS011;18414;59.352;18.152;2023-08-31T05:36:00;4.85;;;3.90;;
31848;SDS011;18414;59.352;18.152;2023-08-31T05:38:27;5.55;;;3.92;;
31848;SDS011;18414;59.352;18.152;2023-08-31T05:40:52;3.95;;;3.50;;
31848;SDS011;18414;59.352;18.152;2023-08-31T05:43:17;3.88;;;3.47;;
31848;SDS011;18414;59.352;18.152;2023-08-31T05:45:43;4.53;;;3.20;;
31848;SDS011;18414;59.352;18.152;2023-08-31T05:48:08;5.45;;;3.50;;
31848;SDS011;18414;59.352;18.152;2023-08-31T05:50:34;5.93;;;3.70;;
31848;SDS011;18414;59.352;18.152;2023-08-31T05:53:01;3.58;;;3.00;;
31848;SDS011;18414;59.352;18.152;2023-08-31T05:55:27;4.72;;;3.30;;
31848;SDS011;18414;59.352;18.152;2023-08-31T05:57:52;4.50;;;3.13;;
31848;SDS011;18414;59.352;18.152;2023-08-31T06:00:18;4.38;;;2.97;;
31848;SDS011;18414;59.352;18.152;2023-08-31T06:02:45;4.55;;;2.95;;
31848;SDS011;18414;59.352;18.152;2023-08-31T06:05:10;4.35;;;3.40;;
31848;SDS011;18414;59.352;18.152;2023-08-31T06:07:41;3.08;;;2.78;;
31848;SDS011;18414;59.352;18.152;2023-08-31T06:10:08;2.97;;;2.72;;
31848;SDS011;18414;59.352;18.152;2023-08-31T06:12:34;3.88;;;2.22;;
31848;SDS011;18414;59.352;18.152;2023-08-31T06:15:00;3.58;;;2.55;;
31848;SDS011;18414;59.352;18.152;2023-08-31T06:17:25;2.70;;;2.13;;
31848;SDS011;18414;59.352;18.152;2023-08-31T06:19:52;3.47;;;2.47;;
31848;SDS011;18414;59.352;18.152;2023-08-31T06:22:18;3.22;;;2.45;;
31848;SDS011;18414;59.352;18.152;2023-08-31T06:24:43;3.58;;;2.00;;
31848;SDS011;18414;59.352;18.152;2023-08-31T06:27:10;2.92;;;2.40;;
31848;SDS011;18414;59.352;18.152;2023-08-31T06:29:37;3.15;;;2.22;;
31848;SDS011;18414;59.352;18.152;2023-08-31T06:32:03;3.45;;;2.20;;
31848;SDS011;18414;59.352;18.152;2023-08-31T06:34:29;2.58;;;2.30;;
31848;SDS011;18414;59.352;18.152;2023-08-31T06:36:55;6.47;;;2.40;;
31848;SDS011;18414;59.352;18.152;2023-08-31T06:39:23;2.75;;;1.98;;
31848;SDS011;18414;59.352;18.152;2023-08-31T06:41:48;3.05;;;2.47;;
31848;SDS011;18414;59.352;18.152;2023-08-31T06:44:14;2.75;;;2.30;;
31848;SDS011;18414;59.352;18.152;2023-08-31T06:46:41;3.83;;;2.53;;
31848;SDS011;18414;59.352;18.152;2023-08-31T06:49:08;2.92;;;2.33;;
31848;SDS011;18414;59.352;18.152;2023-08-31T06:51:34;2.25;;;2.05;;
31848;SDS011;18414;59.352;18.152;2023-08-31T06:54:00;2.50;;;2.20;;
31848;SDS011;18414;59.352;18.152;2023-08-31T06:56:31;3.58;;;2.40;;
31848;SDS011;18414;59.352;18.152;2023-08-31T06:59:00;2.72;;;2.00;;
31848;SDS011;18414;59.352;18.152;2023-08-31T07:01:25;2.20;;;2.00;;
31848;SDS011;18414;59.352;18.152;2023-08-31T07:03:52;2.58;;;1.85;;
31848;SDS011;18414;59.352;18.152;2023-08-31T07:06:17;3.03;;;1.92;;
31848;SDS011;18414;59.352;18.152;2023-08-31T07:08:44;1.83;;;1.58;;
31848;SDS011;18414;59.352;18.152;2023-08-31T07:11:13;3.65;;;1.88;;
31848;SDS011;18414;59.352;18.152;2023-08-31T07:13:39;3.30;;;1.60;;
31848;SDS011;18414;59.352;18.152;2023-08-31T07:16:05;1.70;;;1.60;;
31848;SDS011;18414;59.352;18.152;2023-08-31T07:18:32;3.60;;;1.90;;
31848;SDS011;18414;59.352;18.152;2023-08-31T07:20:58;2.13;;;1.70;;
31848;SDS011;18414;59.352;18.152;2023-08-31T07:23:23;2.47;;;1.67;;
31848;SDS011;18414;59.352;18.152;2023-08-31T07:25:48;1.67;;;1.58;;
31848;SDS011;18414;59.352;18.152;2023-08-31T07:28:14;1.98;;;1.77;;
31848;SDS011;18414;59.352;18.152;2023-08-31T07:30:39;3.90;;;1.60;;
31848;SDS011;18414;59.352;18.152;2023-08-31T07:33:05;4.00;;;1.98;;
31848;SDS011;18414;59.352;18.152;2023-08-31T07:35:32;2.17;;;1.80;;
31848;SDS011;18414;59.352;18.152;2023-08-31T07:37:58;3.05;;;1.92;;
31848;SDS011;18414;59.352;18.152;2023-08-31T07:40:23;2.58;;;2.03;;
31848;SDS011;18414;59.352;18.152;2023-08-31T07:42:56;2.00;;;1.68;;
31848;SDS011;18414;59.352;18.152;2023-08-31T07:45:21;2.80;;;1.90;;
31848;SDS011;18414;59.352;18.152;2023-08-31T07:47:46;3.15;;;1.50;;
31848;SDS011;18414;59.352;18.152;2023-08-31T07:50:12;2.13;;;1.75;;
31848;SDS011;18414;59.352;18.152;2023-08-31T07:52:39;4.65;;;1.60;;
31848;SDS011;18414;59.352;18.152;2023-08-31T07:55:04;2.83;;;1.70;;
31848;SDS011;18414;59.352;18.152;2023-08-31T07:57:31;4.32;;;1.70;;
31848;SDS011;18414;59.352;18.152;2023-08-31T07:59:57;2.88;;;1.70;;
31848;SDS011;18414;59.352;18.152;2023-08-31T08:02:22;2.80;;;1.70;;
31848;SDS011;18414;59.352;18.152;2023-08-31T08:04:47;2.05;;;1.80;;
31848;SDS011;18414;59.352;18.152;2023-08-31T08:07:13;2.97;;;1.80;;
31848;SDS011;18414;59.352;18.152;2023-08-31T08:09:38;2.83;;;2.13;;
31848;SDS011;18414;59.352;18.152;2023-08-31T08:12:04;1.70;;;1.60;;
31848;SDS011;18414;59.352;18.152;2023-08-31T08:14:29;2.90;;;1.60;;
31848;SDS011;18414;59.352;18.152;2023-08-31T08:16:55;2.20;;;1.98;;
31848;SDS011;18414;59.352;18.152;2023-08-31T08:19:21;2.33;;;1.67;;
31848;SDS011;18414;59.352;18.152;2023-08-31T08:21:50;3.28;;;1.58;;
31848;SDS011;18414;59.352;18.152;2023-08-31T08:24:16;1.70;;;1.60;;
31848;SDS011;18414;59.352;18.152;2023-08-31T08:26:41;1.70;;;1.60;;
31848;SDS011;18414;59.352;18.152;2023-08-31T08:29:07;2.03;;;1.48;;
31848;SDS011;18414;59.352;18.152;2023-08-31T08:31:32;3.13;;;1.70;;
31848;SDS011;18414;59.352;18.152;2023-08-31T08:33:58;3.17;;;1.80;;
31848;SDS011;18414;59.352;18.152;2023-08-31T08:36:23;2.50;;;1.80;;
31848;SDS011;18414;59.352;18.152;2023-08-31T08:38:48;2.85;;;1.70;;
31848;SDS011;18414;59.352;18.152;2023-08-31T08:41:14;3.78;;;1.98;;
31848;SDS011;18414;59.352;18.152;2023-08-31T08:43:39;4.90;;;1.90;;
31848;SDS011;18414;59.352;18.152;2023-08-31T08:46:08;1.95;;;1.73;;
31848;SDS011;18414;59.352;18.152;2023-08-31T08:48:34;2.78;;;1.80;;
31848;SDS011;18414;59.352;18.152;2023-08-31T08:51:00;3.33;;;2.00;;
31848;SDS011;18414;59.352;18.152;2023-08-31T08:53:28;3.88;;;1.75;;
31848;SDS011;18414;59.352;18.152;2023-08-31T08:55:53;2.80;;;1.75;;
31848;SDS011;18414;59.352;18.152;2023-08-31T08:58:18;2.53;;;1.80;;
31848;SDS011;18414;59.352;18.152;2023-08-31T09:00:44;2.47;;;1.88;;
31848;SDS011;18414;59.352;18.152;2023-08-31T09:03:10;2.28;;;1.60;;
31848;SDS011;18414;59.352;18.152;2023-08-31T09:05:35;3.90;;;1.90;;
31848;SDS011;18414;59.352;18.152;2023-08-31T09:08:02;2.17;;;1.67;;
31848;SDS011;18414;59.352;18.152;2023-08-31T09:10:38;2.33;;;1.58;;
31848;SDS011;18414;59.352;18.152;2023-08-31T09:13:05;2.30;;;1.70;;
31848;SDS011;18414;59.352;18.152;2023-08-31T09:16:07;1.98;;;1.60;;
31848;SDS011;18414;59.352;18.152;2023-08-31T09:18:27;2.95;;;1.60;;
31848;SDS011;18414;59.352;18.152;2023-08-31T09:20:55;2.90;;;1.70;;
31848;SDS011;18414;59.352;18.152;2023-08-31T09:23:22;1.70;;;1.58;;
31848;SDS011;18414;59.352;18.152;2023-08-31T09:25:48;1.90;;;1.60;;
31848;SDS011;18414;59.352;18.152;2023-08-31T09:28:18;1.98;;;1.42;;
31848;SDS011;18414;59.352;18.152;2023-08-31T09:30:46;2.05;;;1.52;;
31848;SDS011;18414;59.352;18.152;2023-08-31T09:33:16;2.30;;;1.67;;
31848;SDS011;18414;59.352;18.152;2023-08-31T09:35:52;1.83;;;1.58;;
31848;SDS011;18414;59.352;18.152;2023-08-31T09:38:20;1.92;;;1.60;;
31848;SDS011;18414;59.352;18.152;2023-08-31T09:40:46;1.73;;;1.50;;
31848;SDS011;18414;59.352;18.152;2023-08-31T09:43:12;2.10;;;1.77;;
31848;SDS011;18414;59.352;18.152;2023-08-31T09:45:37;1.92;;;1.60;;
31848;SDS011;18414;59.352;18.152;2023-08-31T09:48:03;2.53;;;1.70;;
31848;SDS011;18414;59.352;18.152;2023-08-31T09:50:30;3.05;;;1.55;;
31848;SDS011;18414;59.352;18.152;2023-08-31T09:53:00;1.83;;;1.52;;
31848;SDS011;18414;59.352;18.152;2023-08-31T09:55:28;2.95;;;1.48;;
31848;SDS011;18414;59.352;18.152;2023-08-31T09:57:56;2.58;;;1.77;;
31848;SDS011;18414;59.352;18.152;2023-08-31T10:00:22;2.38;;;1.48;;
31848;SDS011;18414;59.352;18.152;2023-08-31T10:02:49;2.05;;;1.80;;
31848;SDS011;18414;59.352;18.152;2023-08-31T10:05:15;1.75;;;1.60;;
31848;SDS011;18414;59.352;18.152;2023-08-31T10:07:41;2.33;;;1.77;;
31848;SDS011;18414;59.352;18.152;2023-08-31T10:10:08;2.50;;;1.77;;
31848;SDS011;18414;59.352;18.152;2023-08-31T10:12:34;1.98;;;1.50;;
31848;SDS011;18414;59.352;18.152;2023-08-31T10:15:00;2.10;;;1.50;;
31848;SDS011;18414;59.352;18.152;2023-08-31T10:17:26;1.63;;;1.50;;
31848;SDS011;18414;59.352;18.152;2023-08-31T10:19:53;1.77;;;1.67;;
31848;SDS011;18414;59.352;18.152;2023-08-31T10:22:20;3.13;;;1.80;;
31848;SDS011;18414;59.352;18.152;2023-08-31T10:25:01;4.10;;;1.50;;
31848;SDS011;18414;59.352;18.152;2023-08-31T10:27:43;3.35;;;1.85;;
31848;SDS011;18414;59.352;18.152;2023-08-31T10:30:12;2.22;;;1.80;;
31848;SDS011;18414;59.352;18.152;2023-08-31T10:38:33;3.08;;;1.50;;
31848;SDS011;18414;59.352;18.152;2023-08-31T10:43:48;1.77;;;1.50;;
31848;SDS011;18414;59.352;18.152;2023-08-31T10:46:24;1.70;;;1.48;;
31848;SDS011;18414;59.352;18.152;2023-08-31T10:48:57;2.88;;;1.90;;
31848;SDS011;18414;59.352;18.152;2023-08-31T10:51:31;2.35;;;1.65;;
31848;SDS011;18414;59.352;18.152;2023-08-31T10:54:07;2.15;;;1.40;;
31848;SDS011;18414;59.352;18.152;2023-08-31T10:59:46;1.52;;;1.40;;
31848;SDS011;18414;59.352;18.152;2023-08-31T11:07:39;2.13;;;1.38;;
31848;SDS011;18414;59.352;18.152;2023-08-31T11:10:06;2.72;;;1.40;;
31848;SDS011;18414;59.352;18.152;2023-08-31T11:12:46;3.22;;;1.67;;
31848;SDS011;18414;59.352;18.152;2023-08-31T11:15:13;1.55;;;1.20;;
31848;SDS011;18414;59.352;18.152;2023-08-31T11:17:40;1.70;;;1.55;;
31848;SDS011;18414;59.352;18.152;2023-08-31T11:20:06;1.63;;;1.48;;
31848;SDS011;18414;59.352;18.152;2023-08-31T11:22:34;2.33;;;1.27;;
31848;SDS011;18414;59.352;18.152;2023-08-31T11:25:01;1.40;;;1.30;;
31848;SDS011;18414;59.352;18.152;2023-08-31T11:27:26;3.25;;;1.48;;
31848;SDS011;18414;59.352;18.152;2023-08-31T11:29:51;4.07;;;1.70;;
31848;SDS011;18414;59.352;18.152;2023-08-31T11:32:17;2.53;;;1.60;;
31848;SDS011;18414;59.352;18.152;2023-08-31T11:34:43;1.63;;;1.25;;
31848;SDS011;18414;59.352;18.152;2023-08-31T11:37:13;3.38;;;1.25;;
31848;SDS011;18414;59.352;18.152;2023-08-31T11:39:51;1.42;;;1.30;;
31848;SDS011;18414;59.352;18.152;2023-08-31T11:42:18;3.60;;;1.38;;
31848;SDS011;18414;59.352;18.152;2023-08-31T11:44:48;1.50;;;1.30;;
31848;SDS011;18414;59.352;18.152;2023-08-31T11:47:14;1.30;;;1.20;;
31848;SDS011;18414;59.352;18.152;2023-08-31T11:49:40;2.08;;;1.20;;
31848;SDS011;18414;59.352;18.152;2023-08-31T11:52:09;2.33;;;1.30;;
31848;SDS011;18414;59.352;18.152;2023-08-31T11:54:37;1.35;;;1.25;;
31848;SDS011;18414;59.352;18.152;2023-08-31T11:57:03;1.50;;;1.35;;
31848;SDS011;18414;59.352;18.152;2023-08-31T11:59:32;2.55;;;1.42;;
31848;SDS011;18414;59.352;18.152;2023-08-31T12:01:59;1.45;;;1.27;;
31848;SDS011;18414;59.352;18.152;2023-08-31T12:04:25;1.50;;;1.40;;
31848;SDS011;18414;59.352;18.152;2023-08-31T12:06:51;1.90;;;1.40;;
31848;SDS011;18414;59.352;18.152;2023-08-31T12:09:17;2.20;;;1.45;;
31848;SDS011;18414;59.352;18.152;2023-08-31T12:11:49;1.27;;;1.17;;
31848;SDS011;18414;59.352;18.152;2023-08-31T12:14:24;1.35;;;1.25;;
31848;SDS011;18414;59.352;18.152;2023-08-31T12:16:50;1.77;;;1.13;;
31848;SDS011;18414;59.352;18.152;2023-08-31T12:19:17;1.13;;;1.00;;
31848;SDS011;18414;59.352;18.152;2023-08-31T12:21:43;2.08;;;1.70;;
31848;SDS011;18414;59.352;18.152;2023-08-31T12:24:09;1.40;;;1.30;;
31848;SDS011;18414;59.352;18.152;2023-08-31T12:26:35;1.13;;;1.02;;
31848;SDS011;18414;59.352;18.152;2023-08-31T12:29:01;1.50;;;1.20;;
31848;SDS011;18414;59.352;18.152;2023-08-31T12:31:26;1.52;;;1.17;;
31848;SDS011;18414;59.352;18.152;2023-08-31T12:33:52;1.25;;;1.10;;
31848;SDS011;18414;59.352;18.152;2023-08-31T12:36:17;2.75;;;1.48;;
31848;SDS011;18414;59.352;18.152;2023-08-31T12:38:43;2.83;;;1.30;;
31848;SDS011;18414;59.352;18.152;2023-08-31T12:41:08;1.83;;;1.20;;
31848;SDS011;18414;59.352;18.152;2023-08-31T12:43:34;1.13;;;1.02;;
31848;SDS011;18414;59.352;18.152;2023-08-31T12:46:00;2.38;;;1.20;;
31848;SDS011;18414;59.352;18.152;2023-08-31T12:48:25;3.83;;;2.17;;
31848;SDS011;18414;59.352;18.152;2023-08-31T12:50:51;1.85;;;1.20;;
31848;SDS011;18414;59.352;18.152;2023-08-31T12:53:18;1.92;;;1.23;;
31848;SDS011;18414;59.352;18.152;2023-08-31T12:55:45;1.60;;;1.30;;
31848;SDS011;18414;59.352;18.152;2023-08-31T12:58:11;1.98;;;1.30;;
31848;SDS011;18414;59.352;18.152;2023-08-31T13:00:36;2.97;;;1.35;;
31848;SDS011;18414;59.352;18.152;2023-08-31T13:03:01;1.30;;;1.20;;
31848;SDS011;18414;59.352;18.152;2023-08-31T13:05:28;1.52;;;1.30;;
31848;SDS011;18414;59.352;18.152;2023-08-31T13:07:54;1.23;;;1.13;;
31848;SDS011;18414;59.352;18.152;2023-08-31T13:10:19;1.25;;;1.15;;
31848;SDS011;18414;59.352;18.152;2023-08-31T13:12:45;3.45;;;1.20;;
31848;SDS011;18414;59.352;18.152;2023-08-31T13:15:10;1.52;;;1.40;;
31848;SDS011;18414;59.352;18.152;2023-08-31T13:17:35;3.50;;;1.33;;
31848;SDS011;18414;59.352;18.152;2023-08-31T13:20:01;1.52;;;1.38;;
31848;SDS011;18414;59.352;18.152;2023-08-31T13:22:28;3.22;;;1.30;;
31848;SDS011;18414;59.352;18.152;2023-08-31T13:24:53;1.30;;;1.20;;
31848;SDS011;18414;59.352;18.152;2023-08-31T13:27:19;1.60;;;1.30;;
31848;SDS011;18414;59.352;18.152;2023-08-31T13:29:44;2.30;;;1.10;;
31848;SDS011;18414;59.352;18.152;2023-08-31T13:32:09;2.75;;;1.20;;
31848;SDS011;18414;59.352;18.152;2023-08-31T13:34:35;2.03;;;1.47;;
31848;SDS011;18414;59.352;18.152;2023-08-31T13:37:04;2.20;;;1.20;;
31848;SDS011;18414;59.352;18.152;2023-08-31T13:39:30;1.98;;;1.27;;
31848;SDS011;18414;59.352;18.152;2023-08-31T13:41:56;3.85;;;1.60;;
31848;SDS011;18414;59.352;18.152;2023-08-31T13:44:21;2.65;;;1.40;;
31848;SDS011;18414;59.352;18.152;2023-08-31T13:46:47;1.50;;;1.27;;
31848;SDS011;18414;59.352;18.152;2023-08-31T13:49:14;2.28;;;1.50;;
31848;SDS011;18414;59.352;18.152;2023-08-31T13:51:40;1.80;;;1.30;;
31848;SDS011;18414;59.352;18.152;2023-08-31T13:54:06;2.65;;;1.30;;
31848;SDS011;18414;59.352;18.152;2023-08-31T13:56:32;2.78;;;1.67;;
31848;SDS011;18414;59.352;18.152;2023-08-31T13:58:58;3.55;;;1.42;;
31848;SDS011;18414;59.352;18.152;2023-08-31T14:01:24;2.78;;;1.60;;
31848;SDS011;18414;59.352;18.152;2023-08-31T14:03:49;1.52;;;1.38;;
31848;SDS011;18414;59.352;18.152;2023-08-31T14:06:15;2.78;;;1.30;;
31848;SDS011;18414;59.352;18.152;2023-08-31T14:08:40;1.65;;;1.33;;
31848;SDS011;18414;59.352;18.152;2023-08-31T14:11:06;5.68;;;1.40;;
31848;SDS011;18414;59.352;18.152;2023-08-31T14:13:31;1.27;;;1.17;;
31848;SDS011;18414;59.352;18.152;2023-08-31T14:15:57;2.58;;;1.40;;
31848;SDS011;18414;59.352;18.152;2023-08-31T14:18:23;1.40;;;1.30;;
31848;SDS011;18414;59.352;18.152;2023-08-31T14:20:50;1.50;;;1.40;;
31848;SDS011;18414;59.352;18.152;2023-08-31T14:23:15;1.80;;;1.30;;
31848;SDS011;18414;59.352;18.152;2023-08-31T14:25:41;2.58;;;1.40;;
31848;SDS011;18414;59.352;18.152;2023-08-31T14:28:06;1.40;;;1.30;;
31848;SDS011;18414;59.352;18.152;2023-08-31T14:30:32;4.47;;;1.50;;
31848;SDS011;18414;59.352;18.152;2023-08-31T14:32:57;1.70;;;1.30;;
31848;SDS011;18414;59.352;18.152;2023-08-31T14:35:22;3.15;;;1.25;;
31848;SDS011;18414;59.352;18.152;2023-08-31T14:37:48;3.58;;;1.40;;
31848;SDS011;18414;59.352;18.152;2023-08-31T14:40:14;1.50;;;1.40;;
31848;SDS011;18414;59.352;18.152;2023-08-31T14:42:39;3.25;;;1.58;;
31848;SDS011;18414;59.352;18.152;2023-08-31T14:45:05;3.33;;;1.50;;
31848;SDS011;18414;59.352;18.152;2023-08-31T14:47:31;1.40;;;1.30;;
31848;SDS011;18414;59.352;18.152;2023-08-31T14:49:56;2.42;;;1.42;;
31848;SDS011;18414;59.352;18.152;2023-08-31T14:52:22;1.73;;;1.42;;